Terminal Aerodrome Forecast
Issued by NWS Lake Charles, LA

Home | Current Version | Previous Version | Text Only | Print | Product List | Glossary On
Versions: 1 2 3 4 5 6 7 8 9 10 11 12 13 14 15 16
000
FTUS44 KLCH 252322
TAFBPT
TAF
KBPT 252322Z 2600/2624 VRB06KT P6SM VCTS SCT035CB BKN150
      TEMPO 2600/2601 VRB12G22KT 3SM TSRA SCT025 BKN035CB
     FM260300 06004KT P6SM FEW050 BKN200
     FM261900 10008KT P6SM VCTS FEW025CB SCT035 PROB30 2619/2623 4SM
      TSRA SCT015 BKN025CB=

USA.gov is the U.S. government's official web portal to all federal, state and local government web resources and services.